NKS1972 KAUS-KFLL
Flight info
| Callsign | NKS1972 |
|---|---|
| Flight time | 2h 16m |
| Altitude | 37000 |
| Route | ILEXY4 ZENZI IAH J86 LEV Y290 OCHHO VNECK TEEKY3 |
| Aircraft | A20N/M-SDE2E3FGHIRWXY/LB1 |
Departure
| Time | 2026-05-03 21:23 |
|---|---|
| Airport | Austin Bergstrom International Airport (KAUS) |
Arrival
| Time | 2026-05-03 23:39 |
|---|---|
| Airport | Fort Lauderdale Hollywood International Airport (KFLL) |
| Time | Latitude | Longitude | Altitude | Speed | Heading |
|---|---|---|---|---|---|
| 2026-05-03 20:48 | 30.20180 | -97.66267 | 496 ft | 0 kts | 339° |
| 2026-05-03 21:11 | 30.20170 | -97.66262 | 496 ft | 2 kts | 338° |
| 2026-05-03 21:11 | 30.20158 | -97.66257 | 491 ft | 2 kts | 338° |
| 2026-05-03 21:11 | 30.20146 | -97.66251 | 489 ft | 2 kts | 338° |
| 2026-05-03 21:11 | 30.20134 | -97.66246 | 491 ft | 2 kts | 338° |
| 2026-05-03 21:12 | 30.20122 | -97.66241 | 485 ft | 2 kts | 338° |
| 2026-05-03 21:12 | 30.20111 | -97.66235 | 488 ft | 2 kts | 331° |
| 2026-05-03 21:12 | 30.20100 | -97.66227 | 487 ft | 2 kts | 302° |
| 2026-05-03 21:12 | 30.20095 | -97.66215 | 486 ft | 0 kts | 273° |
| 2026-05-03 21:15 | 30.20096 | -97.66223 | 488 ft | 3 kts | 273° |
| 2026-05-03 21:16 | 30.20096 | -97.66279 | 490 ft | 10 kts | 268° |
| 2026-05-03 21:16 | 30.20094 | -97.66366 | 502 ft | 12 kts | 268° |
| 2026-05-03 21:16 | 30.20057 | -97.66393 | 503 ft | 10 kts | 180° |
| 2026-05-03 21:16 | 30.19961 | -97.66390 | 502 ft | 15 kts | 176° |
| 2026-05-03 21:17 | 30.19915 | -97.66293 | 489 ft | 13 kts | 88° |
| 2026-05-03 21:17 | 30.19917 | -97.66225 | 489 ft | 18 kts | 88° |
| 2026-05-03 21:17 | 30.19919 | -97.66048 | 481 ft | 16 kts | 87° |
| 2026-05-03 21:17 | 30.19989 | -97.65992 | 479 ft | 15 kts | 359° |
| 2026-05-03 21:18 | 30.20107 | -97.65994 | 480 ft | 18 kts | 358° |
| 2026-05-03 21:18 | 30.20162 | -97.65996 | 481 ft | 1 kts | 359° |
| 2026-05-03 21:18 | 30.20178 | -97.65996 | 482 ft | 4 kts | 359° |
| 2026-05-03 21:18 | 30.20218 | -97.65996 | 480 ft | 8 kts | 360° |
| 2026-05-03 21:19 | 30.20286 | -97.65997 | 479 ft | 12 kts | 360° |
| 2026-05-03 21:19 | 30.20358 | -97.65963 | 474 ft | 12 kts | 64° |
| 2026-05-03 21:19 | 30.20370 | -97.65900 | 480 ft | 0 kts | 90° |
| 2026-05-03 21:20 | 30.20370 | -97.65898 | 480 ft | 1 kts | 90° |
| 2026-05-03 21:21 | 30.20370 | -97.65877 | 481 ft | 4 kts | 90° |
| 2026-05-03 21:21 | 30.20370 | -97.65836 | 481 ft | 6 kts | 90° |
| 2026-05-03 21:21 | 30.20357 | -97.65794 | 473 ft | 6 kts | 149° |
| 2026-05-03 21:21 | 30.20339 | -97.65791 | 474 ft | 1 kts | 178° |
| 2026-05-03 21:22 | 30.20292 | -97.65789 | 477 ft | 27 kts | 178° |
| 2026-05-03 21:22 | 30.19851 | -97.65778 | 480 ft | 96 kts | 178° |
| 2026-05-03 21:22 | 30.19010 | -97.65755 | 527 ft | 143 kts | 179° |
| 2026-05-03 21:22 | 30.18002 | -97.65721 | 1095 ft | 143 kts | 180° |
| 2026-05-03 21:23 | 30.16938 | -97.65693 | 1467 ft | 164 kts | 178° |
| 2026-05-03 21:23 | 30.15734 | -97.65656 | 1785 ft | 182 kts | 177° |
| 2026-05-03 21:23 | 30.14403 | -97.65610 | 2187 ft | 201 kts | 179° |
| 2026-05-03 21:23 | 30.12939 | -97.65402 | 2498 ft | 225 kts | 160° |
| 2026-05-03 21:24 | 30.11627 | -97.64294 | 2918 ft | 248 kts | 129° |
| 2026-05-03 21:24 | 30.10932 | -97.62453 | 3539 ft | 261 kts | 100° |
| 2026-05-03 21:24 | 30.11096 | -97.60350 | 4302 ft | 270 kts | 72° |
| 2026-05-03 21:24 | 30.12087 | -97.58486 | 5020 ft | 276 kts | 52° |
| 2026-05-03 21:25 | 30.13018 | -97.56557 | 5691 ft | 276 kts | 77° |
| 2026-05-03 21:25 | 30.13341 | -97.54374 | 6369 ft | 278 kts | 86° |
| 2026-05-03 21:25 | 30.13483 | -97.52117 | 6926 ft | 285 kts | 88° |
| 2026-05-03 21:25 | 30.13625 | -97.49791 | 7422 ft | 291 kts | 86° |
| 2026-05-03 21:26 | 30.13810 | -97.47461 | 8036 ft | 294 kts | 84° |
| 2026-05-03 21:26 | 30.14039 | -97.45096 | 8606 ft | 297 kts | 83° |
| 2026-05-03 21:26 | 30.14293 | -97.42721 | 9085 ft | 303 kts | 82° |
| 2026-05-03 21:26 | 30.14561 | -97.40299 | 9666 ft | 305 kts | 82° |
| 2026-05-03 21:27 | 30.14835 | -97.37845 | 10121 ft | 311 kts | 81° |
| 2026-05-03 21:27 | 30.15121 | -97.35305 | 10272 ft | 326 kts | 82° |
| 2026-05-03 21:27 | 30.15416 | -97.32680 | 10409 ft | 340 kts | 82° |
| 2026-05-03 21:27 | 30.15724 | -97.29918 | 10542 ft | 353 kts | 82° |
| 2026-05-03 21:28 | 30.16038 | -97.27082 | 10827 ft | 358 kts | 82° |
| 2026-05-03 21:28 | 30.16352 | -97.24231 | 11255 ft | 359 kts | 82° |
| 2026-05-03 21:28 | 30.16670 | -97.21351 | 11640 ft | 364 kts | 82° |
| 2026-05-03 21:28 | 30.16988 | -97.18447 | 12535 ft | 363 kts | 82° |
| 2026-05-03 21:29 | 30.17307 | -97.15533 | 13442 ft | 367 kts | 82° |
| 2026-05-03 21:29 | 30.17628 | -97.12595 | 14208 ft | 371 kts | 82° |
| 2026-05-03 21:29 | 30.17949 | -97.09655 | 14923 ft | 376 kts | 82° |
| 2026-05-03 21:29 | 30.18279 | -97.06628 | 15544 ft | 382 kts | 81° |
| 2026-05-03 21:30 | 30.18612 | -97.03557 | 16193 ft | 388 kts | 81° |
| 2026-05-03 21:30 | 30.18951 | -97.00437 | 16783 ft | 394 kts | 81° |
| 2026-05-03 21:30 | 30.19294 | -96.97266 | 17399 ft | 400 kts | 81° |
| 2026-05-03 21:30 | 30.19642 | -96.94044 | 17995 ft | 406 kts | 80° |
| 2026-05-03 21:31 | 30.19989 | -96.90816 | 18558 ft | 411 kts | 80° |
| 2026-05-03 21:31 | 30.20342 | -96.87527 | 19073 ft | 416 kts | 80° |
| 2026-05-03 21:31 | 30.20703 | -96.84163 | 19582 ft | 421 kts | 80° |
| 2026-05-03 21:31 | 30.21059 | -96.80822 | 20062 ft | 426 kts | 80° |
| 2026-05-03 21:32 | 30.21425 | -96.77395 | 20574 ft | 431 kts | 80° |
| 2026-05-03 21:32 | 30.21793 | -96.73941 | 21060 ft | 436 kts | 80° |
| 2026-05-03 21:32 | 30.22165 | -96.70435 | 21568 ft | 441 kts | 80° |
| 2026-05-03 21:32 | 30.22543 | -96.66873 | 22041 ft | 446 kts | 80° |
| 2026-05-03 21:33 | 30.22917 | -96.63335 | 22546 ft | 450 kts | 80° |
| 2026-05-03 21:33 | 30.23299 | -96.59706 | 23071 ft | 456 kts | 80° |
| 2026-05-03 21:33 | 30.23682 | -96.56053 | 23643 ft | 458 kts | 80° |
| 2026-05-03 21:33 | 30.24066 | -96.52386 | 24016 ft | 464 kts | 79° |
| 2026-05-03 21:34 | 30.24451 | -96.48706 | 24431 ft | 468 kts | 79° |
| 2026-05-03 21:34 | 30.24842 | -96.44949 | 24847 ft | 472 kts | 79° |
| 2026-05-03 21:34 | 30.25235 | -96.41158 | 25275 ft | 476 kts | 79° |
| 2026-05-03 21:34 | 30.25631 | -96.37332 | 25655 ft | 480 kts | 79° |
| 2026-05-03 21:35 | 30.26030 | -96.33472 | 26044 ft | 484 kts | 79° |
| 2026-05-03 21:35 | 30.26431 | -96.29582 | 26420 ft | 489 kts | 79° |
| 2026-05-03 21:35 | 30.26834 | -96.25664 | 26799 ft | 493 kts | 79° |
| 2026-05-03 21:35 | 30.27239 | -96.21704 | 27133 ft | 496 kts | 79° |
| 2026-05-03 21:36 | 30.27641 | -96.17767 | 27477 ft | 500 kts | 79° |
| 2026-05-03 21:36 | 30.28051 | -96.13734 | 27826 ft | 504 kts | 79° |
| 2026-05-03 21:36 | 30.28388 | -96.09677 | 28154 ft | 511 kts | 85° |
| 2026-05-03 21:36 | 30.28131 | -96.05547 | 28635 ft | 517 kts | 97° |
| 2026-05-03 21:37 | 30.27203 | -96.01512 | 28948 ft | 524 kts | 110° |
| 2026-05-03 21:37 | 30.25657 | -95.97706 | 29195 ft | 528 kts | 120° |
| 2026-05-03 21:37 | 30.23781 | -95.94002 | 29409 ft | 533 kts | 122° |
| 2026-05-03 21:37 | 30.21896 | -95.90353 | 29792 ft | 536 kts | 122° |
| 2026-05-03 21:38 | 30.20027 | -95.86602 | 30097 ft | 539 kts | 121° |
| 2026-05-03 21:38 | 30.18195 | -95.82788 | 30367 ft | 543 kts | 120° |
| 2026-05-03 21:38 | 30.16388 | -95.78939 | 30644 ft | 545 kts | 119° |
| 2026-05-03 21:38 | 30.14605 | -95.75106 | 30972 ft | 548 kts | 119° |
| 2026-05-03 21:39 | 30.12783 | -95.71180 | 31267 ft | 551 kts | 119° |
| 2026-05-03 21:39 | 30.10971 | -95.67282 | 31650 ft | 551 kts | 118° |
| 2026-05-03 21:39 | 30.09175 | -95.63423 | 32056 ft | 551 kts | 118° |
| 2026-05-03 21:39 | 30.07354 | -95.59517 | 32397 ft | 552 kts | 118° |
| 2026-05-03 21:40 | 30.05527 | -95.55604 | 32732 ft | 552 kts | 118° |
| 2026-05-03 21:40 | 30.03706 | -95.51707 | 33057 ft | 552 kts | 118° |
| 2026-05-03 21:40 | 30.01876 | -95.47795 | 33374 ft | 553 kts | 119° |
| 2026-05-03 21:40 | 30.00065 | -95.43927 | 33640 ft | 553 kts | 118° |
| 2026-05-03 21:41 | 29.98233 | -95.40020 | 34070 ft | 551 kts | 118° |
| 2026-05-03 21:41 | 29.96620 | -95.36060 | 34360 ft | 550 kts | 109° |
| 2026-05-03 21:41 | 29.95455 | -95.31875 | 34617 ft | 548 kts | 101° |
| 2026-05-03 21:41 | 29.94750 | -95.27537 | 34744 ft | 548 kts | 94° |
| 2026-05-03 21:42 | 29.94207 | -95.23185 | 35011 ft | 547 kts | 94° |
| 2026-05-03 21:42 | 29.93653 | -95.18844 | 35308 ft | 546 kts | 94° |
| 2026-05-03 21:42 | 29.93094 | -95.14505 | 35583 ft | 546 kts | 94° |
| 2026-05-03 21:42 | 29.92536 | -95.10212 | 35834 ft | 545 kts | 94° |
| 2026-05-03 21:43 | 29.91970 | -95.05875 | 36091 ft | 545 kts | 94° |
| 2026-05-03 21:43 | 29.91405 | -95.01553 | 36337 ft | 545 kts | 94° |
| 2026-05-03 21:43 | 29.90838 | -94.97227 | 36580 ft | 544 kts | 94° |
| 2026-05-03 21:43 | 29.90275 | -94.92949 | 36798 ft | 545 kts | 93° |
| 2026-05-03 21:44 | 29.89706 | -94.88628 | 36997 ft | 545 kts | 93° |
| 2026-05-03 21:44 | 29.89135 | -94.84305 | 37180 ft | 545 kts | 93° |
| 2026-05-03 21:44 | 29.88000 | -94.75742 | 37185 ft | 543 kts | 93° |
| 2026-05-03 21:45 | 29.86853 | -94.67129 | 37183 ft | 543 kts | 93° |
| 2026-05-03 21:45 | 29.85699 | -94.58515 | 37183 ft | 543 kts | 93° |
| 2026-05-03 21:46 | 29.84735 | -94.51352 | 37185 ft | 543 kts | 93° |
| 2026-05-03 21:46 | 29.83578 | -94.42788 | 37179 ft | 543 kts | 93° |
| 2026-05-03 21:47 | 29.82407 | -94.34172 | 37176 ft | 543 kts | 93° |
| 2026-05-03 21:47 | 29.81236 | -94.25593 | 37181 ft | 543 kts | 93° |
| 2026-05-03 21:48 | 29.80049 | -94.16921 | 37186 ft | 553 kts | 94° |
| 2026-05-03 21:48 | 29.78841 | -94.08140 | 37178 ft | 560 kts | 94° |
| 2026-05-03 21:49 | 29.77612 | -93.99294 | 37178 ft | 560 kts | 94° |
| 2026-05-03 21:49 | 29.76375 | -93.90427 | 37180 ft | 559 kts | 94° |
| 2026-05-03 21:50 | 29.75145 | -93.81634 | 37182 ft | 559 kts | 94° |
| 2026-05-03 21:50 | 29.73900 | -93.72785 | 37193 ft | 559 kts | 94° |
| 2026-05-03 21:51 | 29.72649 | -93.63943 | 37193 ft | 559 kts | 94° |
| 2026-05-03 21:51 | 29.71402 | -93.55169 | 37189 ft | 559 kts | 94° |
| 2026-05-03 21:52 | 29.70138 | -93.46318 | 37198 ft | 560 kts | 94° |
| 2026-05-03 21:52 | 29.68867 | -93.37463 | 37195 ft | 559 kts | 94° |
| 2026-05-03 21:53 | 29.67599 | -93.28678 | 37192 ft | 560 kts | 94° |
| 2026-05-03 21:53 | 29.66318 | -93.19834 | 37189 ft | 560 kts | 94° |
| 2026-05-03 21:54 | 29.65038 | -93.11046 | 37185 ft | 560 kts | 94° |
| 2026-05-03 21:54 | 29.63743 | -93.02197 | 37191 ft | 559 kts | 95° |
| 2026-05-03 21:55 | 29.62452 | -92.93411 | 37189 ft | 559 kts | 95° |
| 2026-05-03 21:55 | 29.61143 | -92.84571 | 37184 ft | 559 kts | 95° |
| 2026-05-03 21:56 | 29.59839 | -92.75802 | 37183 ft | 560 kts | 95° |
| 2026-05-03 21:56 | 29.58522 | -92.66960 | 37219 ft | 559 kts | 95° |
| 2026-05-03 21:57 | 29.57215 | -92.58233 | 37181 ft | 556 kts | 95° |
| 2026-05-03 21:57 | 29.55893 | -92.49445 | 37172 ft | 557 kts | 96° |
| 2026-05-03 21:58 | 29.54571 | -92.40710 | 37169 ft | 557 kts | 96° |
| 2026-05-03 21:58 | 29.53244 | -92.31978 | 37173 ft | 557 kts | 96° |
| 2026-05-03 21:59 | 29.51906 | -92.23207 | 37135 ft | 553 kts | 96° |
| 2026-05-03 21:59 | 29.50574 | -92.14516 | 37173 ft | 557 kts | 96° |
| 2026-05-03 22:00 | 29.49220 | -92.05736 | 37171 ft | 556 kts | 96° |
| 2026-05-03 22:00 | 29.47873 | -91.97040 | 37174 ft | 556 kts | 97° |
| 2026-05-03 22:01 | 29.46517 | -91.88315 | 37169 ft | 554 kts | 97° |
| 2026-05-03 22:01 | 29.45162 | -91.79631 | 37177 ft | 553 kts | 97° |
| 2026-05-03 22:02 | 29.43807 | -91.70994 | 37176 ft | 553 kts | 98° |
| 2026-05-03 22:02 | 29.42437 | -91.62303 | 37181 ft | 553 kts | 98° |
| 2026-05-03 22:03 | 29.41063 | -91.53619 | 37176 ft | 553 kts | 98° |
| 2026-05-03 22:03 | 29.39688 | -91.44950 | 37180 ft | 550 kts | 99° |
| 2026-05-03 22:04 | 29.38308 | -91.36314 | 37177 ft | 551 kts | 99° |
| 2026-05-03 22:04 | 29.36928 | -91.27714 | 37175 ft | 551 kts | 99° |
| 2026-05-03 22:05 | 29.35535 | -91.19063 | 37160 ft | 551 kts | 99° |
| 2026-05-03 22:05 | 29.34148 | -91.10470 | 37163 ft | 549 kts | 99° |
| 2026-05-03 22:06 | 29.32747 | -91.01846 | 37156 ft | 549 kts | 99° |
| 2026-05-03 22:06 | 29.31349 | -90.93284 | 37156 ft | 549 kts | 99° |
| 2026-05-03 22:07 | 29.29934 | -90.84646 | 37155 ft | 549 kts | 100° |
| 2026-05-03 22:07 | 29.28527 | -90.76090 | 37157 ft | 549 kts | 100° |
| 2026-05-03 22:08 | 29.27105 | -90.67466 | 37153 ft | 550 kts | 101° |
| 2026-05-03 22:08 | 29.25674 | -90.58845 | 37155 ft | 550 kts | 101° |
| 2026-05-03 22:09 | 29.24246 | -90.50272 | 37151 ft | 551 kts | 101° |
| 2026-05-03 22:10 | 29.22077 | -90.37309 | 37166 ft | 552 kts | 101° |
| 2026-05-03 22:10 | 29.20636 | -90.28729 | 37160 ft | 552 kts | 102° |
| 2026-05-03 22:11 | 29.19174 | -90.20083 | 37162 ft | 552 kts | 102° |
| 2026-05-03 22:11 | 29.17589 | -90.11483 | 37158 ft | 551 kts | 108° |
| 2026-05-03 22:12 | 29.14883 | -90.03307 | 37153 ft | 548 kts | 116° |
| 2026-05-03 22:12 | 29.11897 | -89.95332 | 37153 ft | 545 kts | 117° |
| 2026-05-03 22:13 | 29.08924 | -89.87379 | 37149 ft | 546 kts | 117° |
| 2026-05-03 22:13 | 29.05926 | -89.79387 | 37152 ft | 546 kts | 117° |
| 2026-05-03 22:14 | 29.02922 | -89.71402 | 37152 ft | 546 kts | 117° |
| 2026-05-03 22:14 | 28.99936 | -89.63481 | 37152 ft | 546 kts | 117° |
| 2026-05-03 22:15 | 28.96925 | -89.55509 | 37150 ft | 546 kts | 118° |
| 2026-05-03 22:15 | 28.93919 | -89.47571 | 37148 ft | 549 kts | 118° |
| 2026-05-03 22:16 | 28.90875 | -89.39551 | 37149 ft | 550 kts | 118° |
| 2026-05-03 22:16 | 28.87826 | -89.31528 | 37147 ft | 550 kts | 118° |
| 2026-05-03 22:17 | 28.84770 | -89.23507 | 37152 ft | 550 kts | 118° |
| 2026-05-03 22:17 | 28.81725 | -89.15532 | 37145 ft | 551 kts | 118° |
| 2026-05-03 22:18 | 28.78676 | -89.07566 | 37147 ft | 550 kts | 118° |
| 2026-05-03 22:18 | 28.75605 | -88.99558 | 37144 ft | 550 kts | 118° |
| 2026-05-03 22:19 | 28.72528 | -88.91550 | 37143 ft | 550 kts | 119° |
| 2026-05-03 22:19 | 28.69468 | -88.83602 | 37132 ft | 550 kts | 119° |
| 2026-05-03 22:20 | 28.66376 | -88.75588 | 37144 ft | 551 kts | 119° |
| 2026-05-03 22:20 | 28.63294 | -88.67622 | 37141 ft | 553 kts | 120° |
| 2026-05-03 22:21 | 28.60199 | -88.59636 | 37144 ft | 553 kts | 120° |
| 2026-05-03 22:21 | 28.57086 | -88.51620 | 37144 ft | 553 kts | 120° |
| 2026-05-03 22:22 | 28.53973 | -88.43614 | 37139 ft | 551 kts | 120° |
| 2026-05-03 22:22 | 28.50878 | -88.35679 | 37138 ft | 551 kts | 120° |
| 2026-05-03 22:23 | 28.47757 | -88.27694 | 37135 ft | 551 kts | 120° |
| 2026-05-03 22:23 | 28.44687 | -88.19854 | 37135 ft | 551 kts | 120° |
| 2026-05-03 22:24 | 28.41560 | -88.11886 | 37135 ft | 551 kts | 120° |
| 2026-05-03 22:24 | 28.38454 | -88.03937 | 37133 ft | 550 kts | 118° |
| 2026-05-03 22:25 | 28.35986 | -87.95692 | 37129 ft | 556 kts | 114° |
| 2026-05-03 22:25 | 28.33586 | -87.87312 | 37129 ft | 556 kts | 114° |
| 2026-05-03 22:26 | 28.31175 | -87.78956 | 37131 ft | 556 kts | 114° |
| 2026-05-03 22:26 | 28.28774 | -87.70672 | 37123 ft | 556 kts | 114° |
| 2026-05-03 22:27 | 28.26344 | -87.62307 | 37127 ft | 556 kts | 115° |
| 2026-05-03 22:27 | 28.23924 | -87.54005 | 37126 ft | 556 kts | 115° |
| 2026-05-03 22:28 | 28.21486 | -87.45664 | 37128 ft | 556 kts | 115° |
| 2026-05-03 22:28 | 28.19058 | -87.37374 | 37128 ft | 556 kts | 115° |
| 2026-05-03 22:29 | 28.16613 | -87.29039 | 37126 ft | 557 kts | 115° |
| 2026-05-03 22:29 | 28.14172 | -87.20748 | 37124 ft | 557 kts | 115° |
| 2026-05-03 22:30 | 28.11713 | -87.12418 | 37123 ft | 557 kts | 115° |
| 2026-05-03 22:30 | 28.09259 | -87.04122 | 37124 ft | 557 kts | 115° |
| 2026-05-03 22:31 | 28.06789 | -86.95794 | 37121 ft | 556 kts | 115° |
| 2026-05-03 22:31 | 28.04335 | -86.87533 | 37121 ft | 555 kts | 116° |
| 2026-05-03 22:32 | 28.01858 | -86.79228 | 37112 ft | 557 kts | 116° |
| 2026-05-03 22:32 | 27.99409 | -86.70935 | 37118 ft | 558 kts | 115° |
| 2026-05-03 22:33 | 27.97009 | -86.62587 | 37117 ft | 558 kts | 115° |
| 2026-05-03 22:33 | 27.94596 | -86.54230 | 37120 ft | 556 kts | 116° |
| 2026-05-03 22:34 | 27.92197 | -86.45957 | 37106 ft | 556 kts | 115° |
| 2026-05-03 22:34 | 27.89781 | -86.37645 | 37121 ft | 556 kts | 116° |
| 2026-05-03 22:35 | 27.87351 | -86.29330 | 37116 ft | 556 kts | 116° |
| 2026-05-03 22:35 | 27.84916 | -86.21020 | 37110 ft | 556 kts | 116° |
| 2026-05-03 22:36 | 27.82478 | -86.12730 | 37116 ft | 559 kts | 116° |
| 2026-05-03 22:36 | 27.80033 | -86.04425 | 37115 ft | 558 kts | 116° |
| 2026-05-03 22:37 | 27.77577 | -85.96101 | 37113 ft | 558 kts | 116° |
| 2026-05-03 22:37 | 27.75526 | -85.89170 | 37111 ft | 558 kts | 116° |
| 2026-05-03 22:38 | 27.73053 | -85.80833 | 37114 ft | 558 kts | 116° |
| 2026-05-03 22:38 | 27.70595 | -85.72562 | 37111 ft | 558 kts | 116° |
| 2026-05-03 22:39 | 27.68116 | -85.64244 | 37110 ft | 558 kts | 116° |
| 2026-05-03 22:39 | 27.65633 | -85.55932 | 37107 ft | 558 kts | 116° |
| 2026-05-03 22:40 | 27.63160 | -85.47673 | 37109 ft | 558 kts | 116° |
| 2026-05-03 22:40 | 27.60670 | -85.39375 | 37101 ft | 559 kts | 116° |
| 2026-05-03 22:41 | 27.58541 | -85.30868 | 37104 ft | 569 kts | 107° |
| 2026-05-03 22:41 | 27.57048 | -85.22156 | 37100 ft | 568 kts | 107° |
| 2026-05-03 22:42 | 27.55535 | -85.13429 | 37100 ft | 568 kts | 107° |
| 2026-05-03 22:42 | 27.54000 | -85.04657 | 37091 ft | 568 kts | 108° |
| 2026-05-03 22:43 | 27.52469 | -84.95947 | 37093 ft | 569 kts | 108° |
| 2026-05-03 22:43 | 27.50923 | -84.87182 | 37098 ft | 569 kts | 108° |
| 2026-05-03 22:44 | 27.49381 | -84.78470 | 37098 ft | 569 kts | 108° |
| 2026-05-03 22:44 | 27.47831 | -84.69754 | 37091 ft | 569 kts | 108° |
| 2026-05-03 22:45 | 27.46272 | -84.61010 | 37091 ft | 567 kts | 108° |
| 2026-05-03 22:45 | 27.44712 | -84.52303 | 37091 ft | 568 kts | 108° |
| 2026-05-03 22:46 | 27.43144 | -84.43585 | 37089 ft | 567 kts | 108° |
| 2026-05-03 22:46 | 27.42156 | -84.34757 | 37089 ft | 578 kts | 96° |
| 2026-05-03 22:47 | 27.41902 | -84.25706 | 37081 ft | 575 kts | 97° |
| 2026-05-03 22:47 | 27.41630 | -84.16709 | 37103 ft | 574 kts | 97° |
| 2026-05-03 22:47 | 27.41505 | -84.12306 | 37096 ft | 562 kts | 97° |
| 2026-05-03 22:48 | 27.41383 | -84.07951 | 37071 ft | 553 kts | 97° |
| 2026-05-03 22:48 | 27.41125 | -83.99248 | 37023 ft | 559 kts | 97° |
| 2026-05-03 22:49 | 27.40866 | -83.90502 | 36974 ft | 557 kts | 97° |
| 2026-05-03 22:49 | 27.40609 | -83.81876 | 36593 ft | 552 kts | 97° |
| 2026-05-03 22:49 | 27.40478 | -83.77561 | 36046 ft | 550 kts | 97° |
| 2026-05-03 22:50 | 27.40345 | -83.73263 | 35419 ft | 550 kts | 97° |
| 2026-05-03 22:50 | 27.40210 | -83.68958 | 34779 ft | 549 kts | 97° |
| 2026-05-03 22:50 | 27.40075 | -83.64668 | 34151 ft | 549 kts | 97° |
| 2026-05-03 22:50 | 27.39938 | -83.60375 | 33430 ft | 548 kts | 97° |
| 2026-05-03 22:51 | 27.39799 | -83.56103 | 32738 ft | 546 kts | 96° |
| 2026-05-03 22:51 | 27.39658 | -83.51825 | 32010 ft | 545 kts | 96° |
| 2026-05-03 22:51 | 27.39517 | -83.47574 | 31327 ft | 543 kts | 95° |
| 2026-05-03 22:51 | 27.39376 | -83.43383 | 30683 ft | 542 kts | 95° |
| 2026-05-03 22:52 | 27.39232 | -83.39123 | 30030 ft | 540 kts | 95° |
| 2026-05-03 22:52 | 27.39090 | -83.34914 | 29297 ft | 537 kts | 95° |
| 2026-05-03 22:52 | 27.38949 | -83.30733 | 28595 ft | 533 kts | 95° |
| 2026-05-03 22:52 | 27.38807 | -83.26573 | 27923 ft | 528 kts | 95° |
| 2026-05-03 22:53 | 27.38668 | -83.22501 | 27282 ft | 523 kts | 95° |
| 2026-05-03 22:53 | 27.38526 | -83.18416 | 26652 ft | 518 kts | 95° |
| 2026-05-03 22:53 | 27.38343 | -83.14400 | 26205 ft | 507 kts | 100° |
| 2026-05-03 22:53 | 27.37660 | -83.10603 | 26076 ft | 485 kts | 110° |
| 2026-05-03 22:54 | 27.36724 | -83.06974 | 26058 ft | 486 kts | 112° |
| 2026-05-03 22:54 | 27.35721 | -83.03323 | 26057 ft | 490 kts | 112° |
| 2026-05-03 22:54 | 27.34714 | -82.99662 | 26051 ft | 489 kts | 112° |
| 2026-05-03 22:54 | 27.33719 | -82.96005 | 26051 ft | 489 kts | 112° |
| 2026-05-03 22:55 | 27.32717 | -82.92294 | 26052 ft | 503 kts | 111° |
| 2026-05-03 22:55 | 27.31702 | -82.88525 | 26051 ft | 517 kts | 111° |
| 2026-05-03 22:55 | 27.30660 | -82.84640 | 26049 ft | 525 kts | 111° |
| 2026-05-03 22:55 | 27.29596 | -82.80664 | 26051 ft | 537 kts | 111° |
| 2026-05-03 22:56 | 27.28229 | -82.76750 | 26011 ft | 536 kts | 122° |
| 2026-05-03 22:56 | 27.26540 | -82.73004 | 26050 ft | 536 kts | 122° |
| 2026-05-03 22:56 | 27.24904 | -82.69225 | 26048 ft | 536 kts | 121° |
| 2026-05-03 22:56 | 27.23277 | -82.65453 | 26049 ft | 536 kts | 121° |
| 2026-05-03 22:57 | 27.21661 | -82.61733 | 26050 ft | 536 kts | 122° |
| 2026-05-03 22:57 | 27.20012 | -82.57971 | 26049 ft | 536 kts | 122° |
| 2026-05-03 22:57 | 27.18357 | -82.54216 | 26049 ft | 536 kts | 122° |
| 2026-05-03 22:57 | 27.16696 | -82.50459 | 26051 ft | 536 kts | 122° |
| 2026-05-03 22:58 | 27.15035 | -82.46710 | 26046 ft | 536 kts | 122° |
| 2026-05-03 22:58 | 27.13389 | -82.42999 | 26046 ft | 536 kts | 122° |
| 2026-05-03 22:58 | 27.11726 | -82.39252 | 26032 ft | 535 kts | 122° |
| 2026-05-03 22:58 | 27.10069 | -82.35521 | 26044 ft | 533 kts | 122° |
| 2026-05-03 22:59 | 27.08406 | -82.31779 | 26046 ft | 534 kts | 122° |
| 2026-05-03 22:59 | 27.06744 | -82.28044 | 26048 ft | 534 kts | 122° |
| 2026-05-03 22:59 | 27.05108 | -82.24373 | 26050 ft | 534 kts | 122° |
| 2026-05-03 22:59 | 27.03479 | -82.20713 | 26051 ft | 534 kts | 122° |
| 2026-05-03 23:00 | 27.01826 | -82.17003 | 26061 ft | 534 kts | 122° |
| 2026-05-03 23:00 | 27.00185 | -82.13325 | 26062 ft | 534 kts | 122° |
| 2026-05-03 23:00 | 26.98532 | -82.09624 | 26071 ft | 534 kts | 122° |
| 2026-05-03 23:00 | 26.96871 | -82.05909 | 26073 ft | 534 kts | 122° |
| 2026-05-03 23:01 | 26.95203 | -82.02183 | 26074 ft | 534 kts | 122° |
| 2026-05-03 23:01 | 26.93529 | -81.98446 | 26067 ft | 535 kts | 122° |
| 2026-05-03 23:01 | 26.91879 | -81.94764 | 26073 ft | 535 kts | 122° |
| 2026-05-03 23:01 | 26.90205 | -81.91031 | 26073 ft | 535 kts | 122° |
| 2026-05-03 23:02 | 26.88526 | -81.87288 | 26071 ft | 535 kts | 122° |
| 2026-05-03 23:02 | 26.86852 | -81.83560 | 26068 ft | 529 kts | 122° |
| 2026-05-03 23:02 | 26.85258 | -81.79995 | 26065 ft | 508 kts | 122° |
| 2026-05-03 23:02 | 26.83698 | -81.76535 | 26062 ft | 485 kts | 125° |
| 2026-05-03 23:03 | 26.81989 | -81.73376 | 26063 ft | 465 kts | 130° |
| 2026-05-03 23:03 | 26.80162 | -81.70367 | 26062 ft | 472 kts | 131° |
| 2026-05-03 23:03 | 26.78294 | -81.67328 | 26059 ft | 473 kts | 131° |
| 2026-05-03 23:03 | 26.76468 | -81.64294 | 26049 ft | 472 kts | 130° |
| 2026-05-03 23:04 | 26.74610 | -81.61327 | 26057 ft | 466 kts | 137° |
| 2026-05-03 23:04 | 26.72381 | -81.58766 | 26054 ft | 455 kts | 148° |
| 2026-05-03 23:04 | 26.69879 | -81.56663 | 26040 ft | 450 kts | 152° |
| 2026-05-03 23:04 | 26.67357 | -81.54607 | 25795 ft | 447 kts | 152° |
| 2026-05-03 23:05 | 26.64825 | -81.52566 | 25167 ft | 449 kts | 152° |
| 2026-05-03 23:05 | 26.62284 | -81.50507 | 24323 ft | 453 kts | 152° |
| 2026-05-03 23:05 | 26.59727 | -81.48415 | 23465 ft | 456 kts | 151° |
| 2026-05-03 23:05 | 26.57183 | -81.46314 | 22777 ft | 451 kts | 150° |
| 2026-05-03 23:06 | 26.54674 | -81.44234 | 22095 ft | 446 kts | 150° |
| 2026-05-03 23:06 | 26.52222 | -81.42200 | 21446 ft | 442 kts | 150° |
| 2026-05-03 23:06 | 26.49764 | -81.40165 | 20781 ft | 437 kts | 150° |
| 2026-05-03 23:06 | 26.47324 | -81.38148 | 20140 ft | 433 kts | 150° |
| 2026-05-03 23:07 | 26.44910 | -81.36153 | 19506 ft | 429 kts | 150° |
| 2026-05-03 23:07 | 26.42527 | -81.34154 | 18881 ft | 428 kts | 147° |
| 2026-05-03 23:07 | 26.40337 | -81.31878 | 18258 ft | 430 kts | 139° |
| 2026-05-03 23:07 | 26.38421 | -81.29366 | 17607 ft | 428 kts | 135° |
| 2026-05-03 23:08 | 26.36532 | -81.26821 | 16997 ft | 423 kts | 135° |
| 2026-05-03 23:08 | 26.34651 | -81.24299 | 16330 ft | 420 kts | 135° |
| 2026-05-03 23:08 | 26.32805 | -81.21830 | 15757 ft | 416 kts | 135° |
| 2026-05-03 23:08 | 26.30978 | -81.19390 | 15141 ft | 412 kts | 134° |
| 2026-05-03 23:09 | 26.29146 | -81.16946 | 14520 ft | 409 kts | 134° |
| 2026-05-03 23:09 | 26.27334 | -81.14539 | 13965 ft | 404 kts | 134° |
| 2026-05-03 23:09 | 26.25519 | -81.12151 | 13342 ft | 400 kts | 134° |
| 2026-05-03 23:09 | 26.23728 | -81.09800 | 12755 ft | 396 kts | 134° |
| 2026-05-03 23:10 | 26.21952 | -81.07469 | 12253 ft | 391 kts | 134° |
| 2026-05-03 23:10 | 26.20237 | -81.05217 | 12069 ft | 378 kts | 134° |
| 2026-05-03 23:10 | 26.18567 | -81.03026 | 12014 ft | 363 kts | 134° |
| 2026-05-03 23:10 | 26.16972 | -81.00926 | 12011 ft | 346 kts | 134° |
| 2026-05-03 23:11 | 26.15452 | -80.98925 | 12012 ft | 329 kts | 135° |
| 2026-05-03 23:11 | 26.13995 | -80.97043 | 12008 ft | 311 kts | 141° |
| 2026-05-03 23:11 | 26.12289 | -80.95792 | 12011 ft | 281 kts | 167° |
| 2026-05-03 23:11 | 26.10480 | -80.95542 | 12010 ft | 248 kts | 195° |
| 2026-05-03 23:12 | 26.09013 | -80.96221 | 12010 ft | 226 kts | 225° |
| 2026-05-03 23:12 | 26.08026 | -80.97589 | 12008 ft | 227 kts | 244° |
| 2026-05-03 23:12 | 26.07459 | -80.99209 | 12008 ft | 224 kts | 257° |
| 2026-05-03 23:12 | 26.07291 | -81.00934 | 11880 ft | 227 kts | 271° |
| 2026-05-03 23:13 | 26.07610 | -81.02638 | 11634 ft | 228 kts | 289° |
| 2026-05-03 23:13 | 26.08455 | -81.04137 | 11396 ft | 233 kts | 306° |
| 2026-05-03 23:13 | 26.09519 | -81.05514 | 11158 ft | 233 kts | 305° |
| 2026-05-03 23:13 | 26.10566 | -81.06885 | 10925 ft | 232 kts | 305° |
| 2026-05-03 23:14 | 26.11607 | -81.08257 | 10687 ft | 232 kts | 305° |
| 2026-05-03 23:14 | 26.12643 | -81.09629 | 10452 ft | 231 kts | 305° |
| 2026-05-03 23:14 | 26.13728 | -81.10919 | 10219 ft | 234 kts | 317° |
| 2026-05-03 23:14 | 26.15181 | -81.11788 | 10043 ft | 241 kts | 338° |
| 2026-05-03 23:15 | 26.16882 | -81.11971 | 10013 ft | 252 kts | 2° |
| 2026-05-03 23:15 | 26.18569 | -81.11339 | 10012 ft | 263 kts | 28° |
| 2026-05-03 23:15 | 26.19901 | -81.09910 | 10010 ft | 270 kts | 57° |
| 2026-05-03 23:15 | 26.20543 | -81.07965 | 10011 ft | 272 kts | 85° |
| 2026-05-03 23:16 | 26.20362 | -81.05891 | 10012 ft | 269 kts | 113° |
| 2026-05-03 23:16 | 26.19421 | -81.04135 | 10019 ft | 263 kts | 136° |
| 2026-05-03 23:16 | 26.18267 | -81.02542 | 10013 ft | 264 kts | 133° |
| 2026-05-03 23:16 | 26.17136 | -81.00961 | 10012 ft | 261 kts | 135° |
| 2026-05-03 23:17 | 26.15942 | -80.99443 | 10012 ft | 260 kts | 138° |
| 2026-05-03 23:17 | 26.14693 | -80.97991 | 10011 ft | 258 kts | 142° |
| 2026-05-03 23:17 | 26.13218 | -80.96964 | 10014 ft | 248 kts | 169° |
| 2026-05-03 23:17 | 26.11547 | -80.96777 | 10013 ft | 237 kts | 194° |
| 2026-05-03 23:18 | 26.10032 | -80.97372 | 10010 ft | 228 kts | 217° |
| 2026-05-03 23:18 | 26.08915 | -80.98543 | 10004 ft | 222 kts | 238° |
| 2026-05-03 23:18 | 26.08302 | -81.00106 | 10005 ft | 221 kts | 259° |
| 2026-05-03 23:18 | 26.08287 | -81.01812 | 10005 ft | 223 kts | 280° |
| 2026-05-03 23:19 | 26.08888 | -81.03413 | 10005 ft | 228 kts | 301° |
| 2026-05-03 23:19 | 26.09987 | -81.04705 | 10005 ft | 232 kts | 312° |
| 2026-05-03 23:19 | 26.11147 | -81.05927 | 10010 ft | 232 kts | 311° |
| 2026-05-03 23:19 | 26.12309 | -81.07167 | 10010 ft | 232 kts | 311° |
| 2026-05-03 23:20 | 26.13475 | -81.08421 | 10011 ft | 232 kts | 311° |
| 2026-05-03 23:20 | 26.14639 | -81.09668 | 10011 ft | 232 kts | 314° |
| 2026-05-03 23:20 | 26.16051 | -81.10590 | 10010 ft | 242 kts | 337° |
| 2026-05-03 23:20 | 26.17733 | -81.10788 | 10011 ft | 253 kts | 3° |
| 2026-05-03 23:21 | 26.19405 | -81.10090 | 10011 ft | 264 kts | 32° |
| 2026-05-03 23:21 | 26.20633 | -81.08552 | 10011 ft | 271 kts | 63° |
| 2026-05-03 23:21 | 26.21078 | -81.06516 | 10011 ft | 271 kts | 94° |
| 2026-05-03 23:21 | 26.20630 | -81.04541 | 10014 ft | 266 kts | 124° |
| 2026-05-03 23:22 | 26.18133 | -81.01626 | 10013 ft | 259 kts | 142° |
| 2026-05-03 23:22 | 26.16826 | -81.00244 | 10012 ft | 258 kts | 141° |
| 2026-05-03 23:22 | 26.15527 | -80.98857 | 10014 ft | 259 kts | 141° |
| 2026-05-03 23:23 | 26.14213 | -80.97530 | 10009 ft | 255 kts | 152° |
| 2026-05-03 23:23 | 26.12619 | -80.96805 | 9998 ft | 245 kts | 178° |
| 2026-05-03 23:23 | 26.10962 | -80.96905 | 9803 ft | 235 kts | 203° |
| 2026-05-03 23:23 | 26.09560 | -80.97723 | 9554 ft | 225 kts | 219° |
| 2026-05-03 23:24 | 26.08595 | -80.98279 | 9480 ft | 251 kts | 202° |
| 2026-05-03 23:24 | 26.06869 | -80.99034 | 9374 ft | 274 kts | 217° |
| 2026-05-03 23:24 | 26.05322 | -81.01151 | 9205 ft | 268 kts | 252° |
| 2026-05-03 23:24 | 26.05089 | -81.02522 | 9120 ft | 267 kts | 269° |
| 2026-05-03 23:25 | 26.05509 | -81.04526 | 8993 ft | 271 kts | 295° |
| 2026-05-03 23:25 | 26.06739 | -81.06095 | 8871 ft | 279 kts | 321° |
| 2026-05-03 23:25 | 26.08554 | -81.06905 | 8754 ft | 289 kts | 348° |
| 2026-05-03 23:25 | 26.10576 | -81.06733 | 8632 ft | 298 kts | 14° |
| 2026-05-03 23:26 | 26.12390 | -81.05575 | 8509 ft | 306 kts | 41° |
| 2026-05-03 23:26 | 26.13620 | -81.03633 | 8388 ft | 310 kts | 68° |
| 2026-05-03 23:26 | 26.14011 | -81.01294 | 8268 ft | 309 kts | 94° |
| 2026-05-03 23:26 | 26.13540 | -80.98972 | 8150 ft | 307 kts | 112° |
| 2026-05-03 23:27 | 26.12782 | -80.96785 | 8028 ft | 306 kts | 112° |
| 2026-05-03 23:27 | 26.12127 | -80.94533 | 7906 ft | 306 kts | 107° |
| 2026-05-03 23:27 | 26.11648 | -80.92237 | 7786 ft | 305 kts | 102° |
| 2026-05-03 23:27 | 26.11292 | -80.89905 | 7662 ft | 305 kts | 100° |
| 2026-05-03 23:28 | 26.10999 | -80.87556 | 7543 ft | 306 kts | 98° |
| 2026-05-03 23:28 | 26.10733 | -80.85205 | 7444 ft | 303 kts | 98° |
| 2026-05-03 23:28 | 26.10483 | -80.82942 | 7352 ft | 292 kts | 98° |
| 2026-05-03 23:28 | 26.10242 | -80.80766 | 7210 ft | 275 kts | 98° |
| 2026-05-03 23:29 | 26.10012 | -80.78717 | 7071 ft | 259 kts | 98° |
| 2026-05-03 23:29 | 26.09790 | -80.76775 | 6843 ft | 247 kts | 99° |
| 2026-05-03 23:29 | 26.09568 | -80.74892 | 6519 ft | 243 kts | 99° |
| 2026-05-03 23:29 | 26.09346 | -80.73048 | 6279 ft | 240 kts | 99° |
| 2026-05-03 23:30 | 26.09129 | -80.71179 | 6155 ft | 243 kts | 98° |
| 2026-05-03 23:30 | 26.08917 | -80.69326 | 6026 ft | 240 kts | 98° |
| 2026-05-03 23:30 | 26.08707 | -80.67483 | 5906 ft | 240 kts | 98° |
| 2026-05-03 23:30 | 26.08495 | -80.65631 | 5789 ft | 241 kts | 98° |
| 2026-05-03 23:31 | 26.08285 | -80.63792 | 5667 ft | 238 kts | 98° |
| 2026-05-03 23:31 | 26.08077 | -80.61989 | 5543 ft | 237 kts | 98° |
| 2026-05-03 23:31 | 26.07868 | -80.60165 | 5420 ft | 237 kts | 98° |
| 2026-05-03 23:31 | 26.07657 | -80.58348 | 5299 ft | 236 kts | 98° |
| 2026-05-03 23:32 | 26.07447 | -80.56535 | 5091 ft | 235 kts | 98° |
| 2026-05-03 23:32 | 26.07240 | -80.54757 | 5013 ft | 232 kts | 98° |
| 2026-05-03 23:32 | 26.07034 | -80.52980 | 5001 ft | 233 kts | 98° |
| 2026-05-03 23:32 | 26.06850 | -80.51189 | 5001 ft | 232 kts | 95° |
| 2026-05-03 23:33 | 26.06798 | -80.49381 | 4990 ft | 234 kts | 91° |
| 2026-05-03 23:33 | 26.06792 | -80.47579 | 4866 ft | 231 kts | 91° |
| 2026-05-03 23:33 | 26.06782 | -80.45835 | 4611 ft | 222 kts | 90° |
| 2026-05-03 23:33 | 26.06770 | -80.44176 | 4387 ft | 208 kts | 90° |
| 2026-05-03 23:34 | 26.06759 | -80.42592 | 4070 ft | 200 kts | 90° |
| 2026-05-03 23:34 | 26.06748 | -80.41021 | 4002 ft | 204 kts | 90° |
| 2026-05-03 23:34 | 26.06738 | -80.39498 | 4002 ft | 199 kts | 90° |
| 2026-05-03 23:34 | 26.06732 | -80.37913 | 3961 ft | 205 kts | 90° |
| 2026-05-03 23:35 | 26.06720 | -80.36368 | 3701 ft | 200 kts | 90° |
| 2026-05-03 23:35 | 26.06711 | -80.34816 | 3307 ft | 200 kts | 90° |
| 2026-05-03 23:35 | 26.06694 | -80.33295 | 3010 ft | 193 kts | 90° |
| 2026-05-03 23:35 | 26.06689 | -80.31827 | 2747 ft | 185 kts | 90° |
| 2026-05-03 23:36 | 26.06681 | -80.30447 | 2520 ft | 174 kts | 90° |
| 2026-05-03 23:36 | 26.06673 | -80.29132 | 2296 ft | 175 kts | 90° |
| 2026-05-03 23:36 | 26.06664 | -80.27777 | 2059 ft | 173 kts | 89° |
| 2026-05-03 23:36 | 26.06656 | -80.26442 | 1829 ft | 172 kts | 89° |
| 2026-05-03 23:37 | 26.06648 | -80.25117 | 1606 ft | 170 kts | 89° |
| 2026-05-03 23:37 | 26.06639 | -80.23807 | 1387 ft | 165 kts | 88° |
| 2026-05-03 23:37 | 26.06632 | -80.22577 | 1175 ft | 155 kts | 89° |
| 2026-05-03 23:37 | 26.06625 | -80.21396 | 976 ft | 154 kts | 89° |
| 2026-05-03 23:38 | 26.06617 | -80.20208 | 782 ft | 151 kts | 88° |
| 2026-05-03 23:38 | 26.06611 | -80.19021 | 591 ft | 152 kts | 88° |
| 2026-05-03 23:38 | 26.06599 | -80.17855 | 415 ft | 153 kts | 87° |
| 2026-05-03 23:38 | 26.06587 | -80.16683 | 164 ft | 145 kts | 86° |
| 2026-05-03 23:39 | 26.06586 | -80.15630 | 31 ft | 128 kts | 86° |
| 2026-05-03 23:39 | 26.06585 | -80.14811 | 20 ft | 68 kts | 90° |
| 2026-05-03 23:39 | 26.06583 | -80.14318 | 16 ft | 70 kts | 89° |
| 2026-05-03 23:39 | 26.06585 | -80.13926 | 21 ft | 49 kts | 87° |
| 2026-05-03 23:40 | 26.06662 | -80.13746 | 25 ft | 11 kts | 31° |
| 2026-05-03 23:40 | 26.06697 | -80.13724 | 28 ft | 8 kts | 14° |
| 2026-05-03 23:40 | 26.06739 | -80.13783 | 25 ft | 8 kts | 271° |
| 2026-05-03 23:40 | 26.06740 | -80.13815 | 25 ft | 11 kts | 272° |
| 2026-05-03 23:41 | 26.06740 | -80.13844 | 25 ft | 3 kts | 269° |
| 2026-05-03 23:41 | 26.06740 | -80.13888 | 25 ft | 5 kts | 273° |
| 2026-05-03 23:41 | 26.06741 | -80.13912 | 25 ft | 3 kts | 273° |
| 2026-05-03 23:41 | 26.06742 | -80.13927 | 25 ft | 4 kts | 272° |
| 2026-05-03 23:42 | 26.06741 | -80.13962 | 25 ft | 8 kts | 265° |
| 2026-05-03 23:42 | 26.06727 | -80.14021 | 24 ft | 0 kts | 245° |
| 2026-05-03 23:42 | 26.06715 | -80.14045 | 21 ft | 7 kts | 238° |
| 2026-05-03 23:42 | 26.06691 | -80.14105 | 20 ft | 8 kts | 255° |
| 2026-05-03 23:43 | 26.06689 | -80.14145 | 19 ft | 2 kts | 271° |
| 2026-05-03 23:43 | 26.06689 | -80.14179 | 19 ft | 7 kts | 271° |
| 2026-05-03 23:43 | 26.06690 | -80.14245 | 18 ft | 9 kts | 270° |
| 2026-05-03 23:43 | 26.06690 | -80.14315 | 18 ft | 10 kts | 270° |
| 2026-05-03 23:44 | 26.06690 | -80.14407 | 17 ft | 14 kts | 270° |
| 2026-05-03 23:44 | 26.06691 | -80.14529 | 17 ft | 16 kts | 270° |
| 2026-05-03 23:44 | 26.06692 | -80.14638 | 17 ft | 15 kts | 270° |
| 2026-05-03 23:44 | 26.06692 | -80.14739 | 18 ft | 13 kts | 271° |
| 2026-05-03 23:45 | 26.06692 | -80.14828 | 20 ft | 12 kts | 269° |
| 2026-05-03 23:45 | 26.06692 | -80.14922 | 21 ft | 13 kts | 270° |
| 2026-05-03 23:45 | 26.06693 | -80.15035 | 22 ft | 15 kts | 270° |
| 2026-05-03 23:45 | 26.06695 | -80.15105 | 23 ft | 9 kts | 279° |
| 2026-05-03 23:46 | 26.06750 | -80.15131 | 23 ft | 11 kts | 359° |
| 2026-05-03 23:46 | 26.06806 | -80.15132 | 26 ft | 9 kts | 359° |
| 2026-05-03 23:46 | 26.06882 | -80.15133 | 24 ft | 12 kts | 0° |
| 2026-05-03 23:46 | 26.06972 | -80.15132 | 24 ft | 13 kts | 0° |
| 2026-05-03 23:47 | 26.07043 | -80.15127 | 26 ft | 9 kts | 17° |
| 2026-05-03 23:47 | 26.07099 | -80.15071 | 24 ft | 13 kts | 43° |
| 2026-05-03 23:47 | 26.07162 | -80.15002 | 21 ft | 12 kts | 47° |
| 2026-05-03 23:47 | 26.07157 | -80.14936 | 22 ft | 10 kts | 133° |
| 2026-05-03 23:48 | 26.07134 | -80.14868 | 21 ft | 11 kts | 79° |
| 2026-05-03 23:48 | 26.07175 | -80.14802 | 21 ft | 9 kts | 43° |
| 2026-05-03 23:48 | 26.07189 | -80.14786 | 21 ft | 2 kts | 43° |
| 2026-05-03 23:48 | 26.07202 | -80.14766 | 21 ft | 4 kts | 72° |
| 2026-05-03 23:49 | 26.07180 | -80.14741 | 21 ft | 7 kts | 158° |
| 2026-05-03 23:49 | 26.07145 | -80.14730 | 21 ft | 0 kts | 163° |
| 2026-05-03 23:49 | 26.07141 | -80.14729 | 21 ft | 0 kts | 163° |